Time;durP1;ratioP1;P1;durP2;ratioP2;P2;SDS_P1;SDS_P2;PMS_P1;PMS_P2;Temp;Humidity;BMP_temperature;BMP_pressure;BME280_temperature;BME280_humidity;BME280_pressure;Samples;Min_cycle;Max_cycle;Signal;HPM_P1;HPM_P2
2022/01/27 00:05:20;;;;;;;18.55;10.40;;;;;;;-0.37;53.91;100780.22;1677092;82;21086;-68
2022/01/27 00:10:47;;;;;;;19.60;11.18;;;;;;;-0.51;53.84;100772.86;1666032;83;21073;-67
2022/01/27 00:12:55;;;;;;;15.78;9.85;;;;;;;-0.52;53.88;100771.61;1705422;82;21101;-68
2022/01/27 00:15:29;;;;;;;19.40;9.25;;;;;;;-0.59;54.09;100769.64;1682981;82;21117;-67
2022/01/27 00:17:58;;;;;;;18.23;10.28;;;;;;;-0.60;54.01;100770.09;1681557;82;21108;-68
2022/01/27 00:20:20;;;;;;;18.15;9.80;;;;;;;-0.69;54.03;100769.48;1712519;82;21152;-67
2022/01/27 00:22:47;;;;;;;20.60;11.15;;;;;;;-0.79;54.25;100768.88;1703209;83;21076;-68
2022/01/27 00:25:14;;;;;;;20.30;10.15;;;;;;;-0.84;54.21;100766.87;1711239;81;21135;-68
2022/01/27 00:27:40;;;;;;;18.25;10.70;;;;;;;-0.90;54.29;100764.47;1683241;82;21110;-67
2022/01/27 00:30:09;;;;;;;20.77;10.65;;;;;;;-0.93;54.34;100766.67;1719037;82;21125;-67
2022/01/27 00:32:35;;;;;;;17.70;10.13;;;;;;;-0.97;54.25;100768.50;1714459;82;22689;-67
2022/01/27 00:35:04;;;;;;;15.72;9.98;;;;;;;-1.07;54.81;100770.91;1718276;82;21057;-67
2022/01/27 00:37:32;;;;;;;17.17;10.45;;;;;;;-1.07;54.81;100770.91;1709472;82;21061;-67
2022/01/27 00:39:58;;;;;;;19.30;10.00;;;;;;;-1.06;54.62;100760.13;1702897;82;21121;-67
2022/01/27 00:42:26;;;;;;;19.85;10.60;;;;;;;-1.06;54.62;100760.13;1710414;81;21057;-67
2022/01/27 00:44:53;;;;;;;17.77;10.82;;;;;;;-1.06;54.89;100754.55;1690153;82;21963;-67
2022/01/27 00:47:20;;;;;;;21.73;11.93;;;;;;;-1.07;54.90;100756.70;1700891;82;21076;-66
2022/01/27 00:49:46;;;;;;;23.15;13.28;;;;;;;-1.15;54.94;100757.34;1714132;82;21031;-67
2022/01/27 00:52:20;;;;;;;21.35;13.05;;;;;;;-1.22;55.10;100752.78;1706608;82;21073;-67
2022/01/27 00:54:45;;;;;;;21.23;12.25;;;;;;;-1.24;55.42;100758.44;1698545;82;21113;-67
2022/01/27 00:57:22;;;;;;;17.77;10.05;;;;;;;-1.24;55.42;100758.44;1713817;82;21063;-68
2022/01/27 00:59:57;;;;;;;17.67;10.20;;;;;;;-1.26;55.21;100754.18;1688774;82;21643;-67
2022/01/27 01:07:38;;;;;;;17.00;9.68;;;;;;;-1.39;55.30;100755.78;1709420;82;21163;-67
2022/01/27 01:15:32;;;;;;;15.38;8.50;;;;;;;-1.64;55.61;100759.39;1704642;82;21610;-68
2022/01/27 01:18:04;;;;;;;17.75;9.18;;;;;;;-1.64;55.61;100759.39;1694215;82;21228;-68
2022/01/27 01:20:45;;;;;;;16.95;9.90;;;;;;;-1.64;55.88;100757.27;1694283;83;21596;-68
2022/01/27 01:31:28;;;;;;;19.52;9.65;;;;;;;-1.63;55.97;100754.66;1685146;82;21383;-68
2022/01/27 01:33:45;;;;;;;20.50;10.05;;;;;;;-1.68;55.95;100751.34;1703777;82;21088;-68
2022/01/27 01:36:15;;;;;;;15.72;9.20;;;;;;;-1.76;55.91;100747.63;1694870;82;21156;-68
2022/01/27 01:38:44;;;;;;;23.18;11.30;;;;;;;-1.75;56.07;100746.76;1713103;82;21808;-70
2022/01/27 01:41:10;;;;;;;19.82;9.80;;;;;;;-1.75;56.11;100749.76;1711922;82;21093;-67
2022/01/27 01:43:37;;;;;;;14.98;8.88;;;;;;;-1.77;55.80;100742.05;1705274;82;21318;-67
2022/01/27 01:46:04;;;;;;;19.00;10.00;;;;;;;-1.77;55.80;100742.05;1709411;82;21125;-67
2022/01/27 01:48:30;;;;;;;16.42;8.43;;;;;;;-1.73;56.08;100747.98;1714639;82;21141;-67
2022/01/27 01:50:57;;;;;;;15.83;9.73;;;;;;;-1.70;55.99;100745.34;1704038;82;21065;-67
2022/01/27 01:53:24;;;;;;;17.10;8.43;;;;;;;-1.70;55.95;100742.76;1717569;81;21092;-68
2022/01/27 01:55:50;;;;;;;15.83;8.80;;;;;;;-1.70;55.89;100744.92;1721293;82;21180;-68
2022/01/27 01:58:17;;;;;;;16.35;9.30;;;;;;;-1.73;55.92;100741.11;1723059;81;21599;-68
2022/01/27 02:00:43;;;;;;;19.90;10.38;;;;;;;-1.73;55.94;100735.08;1707080;82;21590;-68
2022/01/27 02:03:10;;;;;;;18.17;10.32;;;;;;;-1.72;55.93;100738.92;1686591;83;21071;-68
2022/01/27 02:05:44;;;;;;;17.12;10.70;;;;;;;-1.61;56.03;100740.43;1678226;82;22269;-67
2022/01/27 02:19:11;;;;;;;21.42;11.18;;;;;;;-1.51;55.50;100734.16;1730642;81;21686;-68
2022/01/27 02:21:54;;;;;;;16.65;10.85;;;;;;;-1.53;55.63;100726.45;1726518;81;21543;-69
2022/01/27 02:24:22;;;;;;;23.60;10.18;;;;;;;-1.50;55.57;100726.80;1731189;81;21088;-69
2022/01/27 02:26:49;;;;;;;14.75;9.58;;;;;;;-1.47;55.50;100726.73;1729547;81;23272;-70
2022/01/27 02:29:20;;;;;;;17.73;10.58;;;;;;;-1.52;55.40;100718.25;1732437;81;21354;-69
2022/01/27 02:31:49;;;;;;;19.20;11.08;;;;;;;-1.52;55.49;100717.80;1742211;81;21096;-70
2022/01/27 02:34:16;;;;;;;14.87;9.15;;;;;;;-1.48;55.59;100713.86;1713930;82;21089;-69
2022/01/27 02:36:43;;;;;;;18.85;11.10;;;;;;;-1.43;55.60;100710.72;1708208;82;21113;-70
2022/01/27 02:39:10;;;;;;;23.05;9.98;;;;;;;-1.45;55.53;100706.88;1696115;82;21122;-70
2022/01/27 02:41:48;;;;;;;16.55;9.38;;;;;;;-1.45;55.53;100706.88;1710224;81;21078;-70
2022/01/27 02:44:51;;;;;;;21.42;10.45;;;;;;;-1.39;55.53;100710.61;1707197;82;21058;-69
2022/01/27 02:47:18;;;;;;;13.62;8.55;;;;;;;-1.33;55.35;100715.63;1713362;82;21073;-67
2022/01/27 02:49:44;;;;;;;22.58;10.85;;;;;;;-1.33;55.29;100715.63;1705698;81;21093;-69
2022/01/27 02:52:11;;;;;;;16.07;9.23;;;;;;;-1.36;55.37;100718.28;1692960;82;21068;-68
2022/01/27 02:54:37;;;;;;;19.42;10.10;;;;;;;-1.41;55.42;100721.42;1717495;82;21191;-69
2022/01/27 02:57:06;;;;;;;16.97;9.40;;;;;;;-1.42;55.49;100717.59;1699562;82;21195;-69
2022/01/27 02:59:32;;;;;;;21.45;10.05;;;;;;;-1.47;55.53;100717.70;1688633;82;21096;-69
2022/01/27 03:01:59;;;;;;;18.45;9.63;;;;;;;-1.55;55.56;100714.45;1706085;82;21145;-68
2022/01/27 03:04:26;;;;;;;15.72;9.10;;;;;;;-1.63;55.64;100712.50;1665077;82;21121;-69
2022/01/27 03:06:53;;;;;;;13.53;7.10;;;;;;;-1.69;55.66;100707.89;1677988;83;21028;-69
2022/01/27 03:09:21;;;;;;;18.07;8.70;;;;;;;-1.69;55.69;100714.34;1703416;82;21560;-68
2022/01/27 03:11:59;;;;;;;22.48;7.83;;;;;;;-1.72;55.66;100717.44;1701247;82;21080;-69
2022/01/27 03:14:26;;;;;;;13.75;6.95;;;;;;;-1.71;55.67;100712.25;1705009;82;21110;-69
2022/01/27 03:16:59;;;;;;;13.70;6.72;;;;;;;-1.70;55.50;100714.38;1707562;82;21247;-69
2022/01/27 03:19:26;;;;;;;14.98;6.60;;;;;;;-1.72;55.33;100709.25;1699303;82;21128;-70
2022/01/27 03:21:54;;;;;;;9.98;5.40;;;;;;;-1.70;55.26;100701.48;1689209;82;21042;-70
2022/01/27 03:24:22;;;;;;;11.43;6.20;;;;;;;-1.65;55.04;100697.50;1701698;82;21130;-69
2022/01/27 03:26:48;;;;;;;10.00;5.70;;;;;;;-1.62;54.78;100701.30;1716924;82;21750;-70
2022/01/27 03:29:17;;;;;;;12.98;5.40;;;;;;;-1.58;54.60;100701.62;1709134;82;21168;-69
2022/01/27 03:31:44;;;;;;;10.48;5.30;;;;;;;-1.56;54.35;100696.84;1713612;82;21129;-70
2022/01/27 03:34:13;;;;;;;9.45;4.97;;;;;;;-1.54;54.21;100694.22;1714560;81;21500;-70
2022/01/27 03:36:41;;;;;;;11.33;5.50;;;;;;;-1.53;54.05;100692.89;1676907;83;21077;-70
2022/01/27 03:39:09;;;;;;;13.13;5.87;;;;;;;-1.53;54.14;100688.16;1691118;82;21108;-70
2022/01/27 03:41:38;;;;;;;12.30;4.78;;;;;;;-1.46;54.21;100698.75;1698262;83;21154;-70
2022/01/27 03:44:06;;;;;;;10.20;4.97;;;;;;;-1.39;54.19;100691.25;1696361;82;21073;-70
2022/01/27 03:46:32;;;;;;;11.18;5.60;;;;;;;-1.37;54.10;100687.34;1694300;83;21105;-70
2022/01/27 03:48:59;;;;;;;15.13;5.53;;;;;;;-1.33;54.05;100688.94;1705146;82;21110;-70
2022/01/27 03:51:25;;;;;;;10.35;5.95;;;;;;;-1.28;53.74;100687.08;1714095;80;21152;-70
2022/01/27 03:53:52;;;;;;;8.98;4.47;;;;;;;-1.26;53.73;100678.02;1709652;82;21136;-70
2022/01/27 03:56:19;;;;;;;11.22;5.35;;;;;;;-1.24;53.69;100673.22;1689785;82;21090;-70
2022/01/27 03:58:45;;;;;;;11.33;5.83;;;;;;;-1.23;53.75;100676.64;1713082;82;21065;-70
2022/01/27 04:01:12;;;;;;;11.10;5.87;;;;;;;-1.25;53.83;100675.84;1701395;82;21358;-70
2022/01/27 04:03:39;;;;;;;9.43;5.22;;;;;;;-1.25;54.05;100661.64;1704263;82;21133;-70
2022/01/27 04:06:07;;;;;;;9.73;5.50;;;;;;;-1.25;54.05;100661.64;1682325;82;21953;-70
2022/01/27 04:08:37;;;;;;;10.18;5.47;;;;;;;-1.21;53.97;100655.08;1712353;82;21078;-62
2022/01/27 04:11:10;;;;;;;11.00;5.00;;;;;;;-1.21;53.97;100655.08;1709133;82;21480;-68
2022/01/27 04:13:37;;;;;;;9.43;4.95;;;;;;;-1.20;53.73;100657.20;1722111;82;21086;-69
2022/01/27 04:16:06;;;;;;;10.58;6.40;;;;;;;-1.21;53.70;100660.66;1707528;82;21188;-67
2022/01/27 04:18:33;;;;;;;9.95;4.50;;;;;;;-1.19;53.37;100662.33;1685559;82;21862;-66
2022/01/27 04:20:59;;;;;;;12.85;6.03;;;;;;;-1.19;53.37;100662.33;1709806;82;21041;-65
2022/01/27 04:23:26;;;;;;;11.80;6.05;;;;;;;-1.20;53.33;100664.49;1731128;81;21089;-64
2022/01/27 04:25:52;;;;;;;14.63;6.40;;;;;;;-1.23;53.27;100664.57;1706306;81;21082;-65
2022/01/27 04:28:27;;;;;;;13.20;6.50;;;;;;;-1.23;53.25;100661.16;1697958;82;21126;-65
2022/01/27 04:30:49;;;;;;;13.53;7.37;;;;;;;-1.38;53.28;100665.84;1709950;83;21192;-65
2022/01/27 04:33:17;;;;;;;11.08;6.30;;;;;;;-1.38;53.28;100665.84;1684941;83;21162;-65
2022/01/27 04:35:47;;;;;;;14.43;7.35;;;;;;;-1.45;53.42;100670.74;1701726;82;21567;-66
2022/01/27 04:40:57;;;;;;;11.78;6.20;;;;;;;-1.58;53.48;100657.75;1681973;83;21066;-65
2022/01/27 04:48:33;;;;;;;10.15;5.53;;;;;;;-1.81;54.07;100646.28;1678055;82;21593;-65
2022/01/27 04:51:04;;;;;;;11.05;6.00;;;;;;;-1.85;53.89;100640.78;1699585;82;21195;-64
2022/01/27 04:53:31;;;;;;;10.13;5.58;;;;;;;-1.95;54.02;100640.18;1700917;82;21169;-63
2022/01/27 04:55:55;;;;;;;13.35;5.67;;;;;;;-1.95;54.02;100640.18;1678756;82;21138;-63
2022/01/27 04:58:28;;;;;;;14.30;7.25;;;;;;;-2.03;54.02;100631.78;1692745;83;21436;-66
2022/01/27 05:00:50;;;;;;;13.70;6.90;;;;;;;-2.10;54.03;100631.08;1675089;83;21490;-62
2022/01/27 05:03:24;;;;;;;19.52;8.38;;;;;;;-2.28;54.18;100624.61;1706930;82;21070;-63
2022/01/27 05:05:45;;;;;;;13.18;7.17;;;;;;;-2.28;54.18;100624.61;1700938;82;21057;-62
2022/01/27 05:08:17;;;;;;;15.20;6.92;;;;;;;-2.36;54.46;100628.25;1720084;82;21219;-63
2022/01/27 05:10:40;;;;;;;16.30;7.47;;;;;;;-2.39;54.71;100626.58;1674193;83;21108;-65
2022/01/27 05:13:11;;;;;;;13.05;7.33;;;;;;;-2.37;54.74;100627.41;1684794;82;21184;-63
2022/01/27 05:15:42;;;;;;;15.60;7.90;;;;;;;-2.37;54.64;100623.55;1682084;83;21157;-64
2022/01/27 05:18:03;;;;;;;12.78;5.35;;;;;;;-2.46;54.52;100632.30;1711659;81;21113;-64
2022/01/27 05:20:30;;;;;;;14.50;6.15;;;;;;;-2.46;54.52;100632.30;1700522;80;21218;-63
2022/01/27 05:22:56;;;;;;;11.45;5.62;;;;;;;-2.59;54.61;100630.88;1717961;81;21086;-66
2022/01/27 05:25:23;;;;;;;12.95;6.60;;;;;;;-2.59;54.61;100630.88;1732523;81;21421;-65
2022/01/27 05:27:50;;;;;;;11.55;5.08;;;;;;;-2.64;54.73;100627.14;1707079;82;22175;-63
2022/01/27 05:30:16;;;;;;;8.85;5.28;;;;;;;-2.67;54.78;100635.38;1701744;82;21687;-63
2022/01/27 05:32:43;;;;;;;11.22;5.45;;;;;;;-2.75;54.80;100630.37;1686086;84;21185;-63
2022/01/27 05:35:09;;;;;;;8.98;4.65;;;;;;;-2.82;54.89;100626.23;1702398;82;21560;-65
2022/01/27 05:37:35;;;;;;;11.40;5.12;;;;;;;-2.87;55.06;100631.48;1703429;82;21656;-64
2022/01/27 05:40:03;;;;;;;9.78;4.92;;;;;;;-2.91;55.12;100632.85;1700565;81;21623;-64
2022/01/27 05:42:30;;;;;;;9.15;4.85;;;;;;;-2.96;55.33;100630.81;1695776;81;21068;-66
2022/01/27 05:44:56;;;;;;;10.60;4.87;;;;;;;-2.99;55.38;100630.00;1726283;81;21136;-67
2022/01/27 05:47:23;;;;;;;10.90;5.80;;;;;;;-2.98;55.54;100626.98;1726018;81;21008;-64
2022/01/27 05:49:49;;;;;;;11.70;5.03;;;;;;;-2.99;55.69;100633.86;1706691;81;21147;-64
2022/01/27 05:52:16;;;;;;;9.70;4.67;;;;;;;-2.96;55.61;100632.94;1713095;81;21083;-64
2022/01/27 05:54:45;;;;;;;11.68;5.70;;;;;;;-2.94;55.63;100622.61;1713135;82;20993;-67
2022/01/27 05:57:13;;;;;;;13.70;6.08;;;;;;;-2.94;55.63;100622.61;1703246;82;21143;-65
2022/01/27 05:59:40;;;;;;;11.45;5.78;;;;;;;-2.96;55.44;100621.34;1701227;83;21584;-65
2022/01/27 06:02:06;;;;;;;17.85;7.87;;;;;;;-2.96;55.41;100625.66;1672871;83;21369;-64
2022/01/27 06:04:33;;;;;;;9.45;5.35;;;;;;;-2.98;55.46;100619.25;1711601;81;21285;-66
2022/01/27 06:07:00;;;;;;;8.03;5.12;;;;;;;-2.98;55.49;100630.84;1721046;81;21201;-64
2022/01/27 06:09:27;;;;;;;10.50;5.90;;;;;;;-2.94;55.44;100631.20;1707825;82;21854;-65
2022/01/27 06:11:53;;;;;;;10.80;6.12;;;;;;;-2.95;55.52;100629.50;1702654;81;21069;-64
2022/01/27 06:14:19;;;;;;;11.88;6.78;;;;;;;-2.93;55.50;100628.18;1714497;82;21097;-66
2022/01/27 06:16:46;;;;;;;12.58;5.42;;;;;;;-2.90;55.49;100625.55;1706933;82;21123;-66
2022/01/27 06:19:13;;;;;;;13.18;5.85;;;;;;;-2.85;55.68;100628.42;1708993;82;21114;-65
2022/01/27 06:21:42;;;;;;;8.20;4.92;;;;;;;-2.85;55.68;100628.42;1680438;83;21205;-64
2022/01/27 06:24:08;;;;;;;13.38;6.53;;;;;;;-2.78;55.52;100621.87;1709416;82;21604;-65
2022/01/27 06:26:35;;;;;;;14.93;5.87;;;;;;;-2.74;55.54;100621.78;1669980;82;21638;-62
2022/01/27 06:29:01;;;;;;;11.30;5.60;;;;;;;-2.66;55.52;100619.02;1709338;81;21640;-62
2022/01/27 06:31:28;;;;;;;12.88;7.08;;;;;;;-2.59;55.23;100619.28;1679494;82;21093;-65
2022/01/27 06:33:55;;;;;;;12.85;6.67;;;;;;;-2.55;55.48;100615.78;1703572;82;21162;-70
2022/01/27 06:36:21;;;;;;;13.90;7.28;;;;;;;-2.40;55.60;100612.43;1708482;82;21129;-73
2022/01/27 06:38:48;;;;;;;16.15;8.30;;;;;;;-2.30;55.41;100604.47;1708012;82;21109;-68
2022/01/27 06:41:14;;;;;;;17.98;8.93;;;;;;;-2.19;55.30;100600.34;1712945;82;21113;-72
2022/01/27 06:43:41;;;;;;;14.75;8.28;;;;;;;-2.12;55.12;100602.33;1708978;82;21142;-68
2022/01/27 06:46:07;;;;;;;15.70;10.18;;;;;;;-2.07;55.08;100602.64;1698898;82;21214;-73
2022/01/27 06:48:34;;;;;;;19.92;9.20;;;;;;;-1.95;55.03;100605.78;1701304;82;21101;-66
2022/01/27 06:51:04;;;;;;;18.85;10.32;;;;;;;-1.82;54.84;100592.98;1716388;82;21105;-70
2022/01/27 06:53:29;;;;;;;17.02;10.23;;;;;;;-1.72;54.61;100593.60;1680842;82;21814;-71
2022/01/27 06:55:56;;;;;;;17.65;10.20;;;;;;;-1.60;54.48;100595.02;1698793;82;21149;-67
2022/01/27 06:58:22;;;;;;;17.00;9.23;;;;;;;-1.44;54.29;100593.72;1708831;82;22128;-69
2022/01/27 07:00:48;;;;;;;15.75;8.93;;;;;;;-1.30;54.01;100593.34;1712260;82;21671;-70
2022/01/27 07:03:18;;;;;;;15.83;10.15;;;;;;;-1.19;53.67;100591.77;1705537;82;21021;-69
2022/01/27 07:05:44;;;;;;;14.85;8.30;;;;;;;-1.16;53.36;100588.66;1682686;83;21179;-69
2022/01/27 07:08:11;;;;;;;15.40;8.58;;;;;;;-1.13;53.29;100587.70;1681287;82;21172;-70
2022/01/27 07:10:38;;;;;;;13.55;8.78;;;;;;;-1.07;53.33;100585.41;1681354;82;21109;-68
2022/01/27 07:13:05;;;;;;;17.92;8.40;;;;;;;-1.02;53.25;100583.54;1690371;83;21118;-68
2022/01/27 07:15:32;;;;;;;14.05;8.05;;;;;;;-0.97;52.91;100579.92;1703322;82;21159;-67
2022/01/27 07:17:59;;;;;;;12.75;7.40;;;;;;;-0.97;52.71;100582.50;1707355;82;21190;-69
2022/01/27 07:20:25;;;;;;;13.85;6.75;;;;;;;-1.02;52.85;100574.05;1706569;82;21096;-65
2022/01/27 07:22:51;;;;;;;11.83;6.80;;;;;;;-1.00;52.99;100575.30;1705494;82;21080;-65
2022/01/27 07:25:18;;;;;;;17.07;8.38;;;;;;;-0.97;52.92;100568.30;1711995;82;21151;-63
2022/01/27 07:27:44;;;;;;;16.35;8.55;;;;;;;-0.93;53.05;100558.72;1708486;82;21116;-69
2022/01/27 07:32:55;;;;;;;13.60;7.08;;;;;;;-0.77;53.30;100560.41;1868791;74;22054;-58
2022/01/27 07:35:23;;;;;;;15.32;7.42;;;;;;;-0.76;53.34;100553.05;1837619;77;21090;-56
2022/01/27 07:37:49;;;;;;;13.58;6.15;;;;;;;-0.63;53.14;100554.81;1840941;75;21787;-57
2022/01/27 07:40:16;;;;;;;14.30;5.55;;;;;;;-0.59;52.93;100548.22;1838326;75;21294;-56
2022/01/27 07:42:44;;;;;;;11.18;5.20;;;;;;;-0.52;53.24;100545.00;1799771;77;21041;-56
2022/01/27 07:45:12;;;;;;;13.72;5.53;;;;;;;-0.52;53.24;100545.00;1779429;78;20903;-57
2022/01/27 07:47:38;;;;;;;10.80;6.20;;;;;;;-0.48;53.16;100541.86;1805938;78;21020;-55
2022/01/27 07:50:06;;;;;;;11.53;6.87;;;;;;;-0.46;53.09;100538.31;1801828;77;21093;-55
2022/01/27 07:52:33;;;;;;;11.75;5.72;;;;;;;-0.45;53.12;100537.89;1786165;78;21567;-55
2022/01/27 07:54:59;;;;;;;14.53;6.85;;;;;;;-0.47;53.15;100540.52;1777391;78;21037;-56
2022/01/27 07:57:26;;;;;;;11.10;5.70;;;;;;;-0.44;53.31;100539.56;1803190;78;21081;-57
2022/01/27 07:59:52;;;;;;;13.98;5.35;;;;;;;-0.44;53.41;100535.69;1804995;78;22262;-57
2022/01/27 08:02:19;;;;;;;10.95;5.42;;;;;;;-0.41;53.47;100540.77;1799332;77;21066;-57
2022/01/27 08:04:46;;;;;;;8.40;4.00;;;;;;;-0.45;53.70;100532.27;1751386;78;21667;-57
2022/01/27 08:07:13;;;;;;;10.78;4.80;;;;;;;-0.39;53.99;100537.25;1750742;80;21133;-56
2022/01/27 08:09:40;;;;;;;7.53;4.12;;;;;;;-0.39;53.99;100537.25;1802568;78;21077;-57
2022/01/27 08:12:07;;;;;;;11.38;4.37;;;;;;;-0.35;54.28;100531.53;1801351;77;21052;-57
2022/01/27 08:14:35;;;;;;;16.57;5.60;;;;;;;-0.34;54.30;100535.78;1805420;77;20959;-57
2022/01/27 08:17:03;;;;;;;16.30;5.25;;;;;;;-0.28;54.57;100527.00;1802540;77;21128;-57
2022/01/27 08:19:29;;;;;;;13.08;5.75;;;;;;;-0.28;54.57;100527.00;1799577;78;21304;-58
2022/01/27 08:21:56;;;;;;;11.45;5.92;;;;;;;-0.23;54.59;100529.83;1778991;78;22119;-57
2022/01/27 08:24:22;;;;;;;12.25;5.67;;;;;;;-0.17;54.72;100529.22;1781242;78;21595;-57
2022/01/27 08:26:50;;;;;;;9.88;5.10;;;;;;;-0.16;54.73;100530.47;1776277;79;21838;-57
2022/01/27 08:31:57;;;;;;;12.37;6.55;;;;;;;-0.13;55.10;100532.95;1769903;78;21073;-57
2022/01/27 08:34:38;;;;;;;9.53;5.35;;;;;;;0.03;55.31;100525.97;1767744;79;21126;-57
2022/01/27 08:37:12;;;;;;;16.60;7.67;;;;;;;0.03;55.31;100525.97;1761074;80;21113;-56
2022/01/27 08:39:39;;;;;;;12.35;6.85;;;;;;;0.13;55.50;100528.63;1766978;80;21109;-57
2022/01/27 08:42:07;;;;;;;12.53;6.97;;;;;;;0.29;55.46;100534.14;1744829;80;21443;-57
2022/01/27 08:44:36;;;;;;;11.00;6.05;;;;;;;0.35;55.28;100522.25;1739598;80;21147;-58
2022/01/27 08:47:04;;;;;;;11.70;5.53;;;;;;;0.38;55.23;100520.86;1768791;79;21535;-57
2022/01/27 08:49:31;;;;;;;9.70;5.00;;;;;;;0.36;55.47;100517.02;1762425;79;21618;-57
2022/01/27 08:51:58;;;;;;;11.15;5.80;;;;;;;0.38;55.55;100521.31;1762459;79;21769;-57
2022/01/27 08:54:25;;;;;;;14.40;7.03;;;;;;;0.33;55.69;100515.83;1761207;80;22419;-57
2022/01/27 08:56:52;;;;;;;9.05;6.20;;;;;;;0.32;55.95;100513.30;1765380;79;21090;-57
2022/01/27 08:59:19;;;;;;;13.13;6.55;;;;;;;0.28;56.35;100506.09;1763819;79;21070;-57
2022/01/27 09:01:46;;;;;;;10.10;5.58;;;;;;;0.29;56.82;100505.20;1776258;78;21021;-57
2022/01/27 09:04:12;;;;;;;11.78;5.42;;;;;;;0.30;57.03;100508.63;1771735;78;21084;-57
2022/01/27 09:06:39;;;;;;;11.10;5.92;;;;;;;0.31;57.21;100505.16;1775553;78;21113;-58
2022/01/27 09:09:06;;;;;;;12.98;6.50;;;;;;;0.31;57.35;100498.23;1778399;78;21073;-59
2022/01/27 09:11:33;;;;;;;14.87;6.70;;;;;;;0.30;57.45;100497.85;1754902;80;21049;-57
2022/01/27 09:14:01;;;;;;;12.30;6.28;;;;;;;0.33;57.56;100499.47;1770763;78;21060;-59
2022/01/27 09:16:28;;;;;;;15.65;7.12;;;;;;;0.36;57.66;100490.30;1739215;79;21093;-58
2022/01/27 09:18:57;;;;;;;20.10;9.43;;;;;;;0.41;57.81;100493.57;1755671;80;21077;-57
2022/01/27 09:21:27;;;;;;;12.50;7.00;;;;;;;0.49;57.55;100490.72;1767373;79;20903;-58
2022/01/27 09:23:54;;;;;;;11.83;6.28;;;;;;;0.55;57.73;100488.75;1760483;79;21037;-57
2022/01/27 09:26:43;;;;;;;13.90;6.33;;;;;;;0.67;57.61;100478.38;1748725;80;21104;-58
2022/01/27 09:29:08;;;;;;;11.90;6.08;;;;;;;0.77;57.54;100472.38;1773461;79;21208;-55
2022/01/27 09:31:35;;;;;;;9.55;5.45;;;;;;;0.86;57.42;100470.75;1780178;79;21029;-56
2022/01/27 09:34:02;;;;;;;13.62;7.12;;;;;;;0.93;57.40;100463.58;1801634;78;21081;-57
2022/01/27 09:36:29;;;;;;;11.75;5.87;;;;;;;1.02;57.51;100455.90;1781592;78;21078;-56
2022/01/27 09:38:55;;;;;;;10.35;5.83;;;;;;;1.10;57.76;100461.63;1774401;78;21075;-56
2022/01/27 09:41:22;;;;;;;11.45;6.22;;;;;;;1.18;57.97;100466.06;1772107;79;21387;-56
2022/01/27 09:43:52;;;;;;;11.38;6.05;;;;;;;1.23;57.86;100461.53;1804663;77;21085;-57
2022/01/27 09:46:20;;;;;;;11.83;6.35;;;;;;;1.22;58.14;100463.72;1770352;78;21037;-57
2022/01/27 09:48:49;;;;;;;12.05;7.15;;;;;;;1.23;58.28;100460.23;1807644;78;21591;-59
2022/01/27 09:53:50;;;;;;;11.50;6.85;;;;;;;1.33;58.96;100461.15;1798119;77;21093;-58
2022/01/27 09:56:17;;;;;;;12.55;6.30;;;;;;;1.37;58.81;100458.38;1800228;77;21452;-57
2022/01/27 09:58:46;;;;;;;13.20;6.37;;;;;;;1.40;59.00;100456.95;1802125;78;21022;-57
2022/01/27 10:01:14;;;;;;;11.88;6.83;;;;;;;1.38;58.79;100460.08;1771329;79;21304;-57
2022/01/27 10:03:56;;;;;;;10.30;6.40;;;;;;;1.39;58.96;100457.02;1778449;78;21627;-58
2022/01/27 10:06:28;;;;;;;12.70;6.72;;;;;;;1.36;59.10;100458.00;1798005;78;21764;-57
2022/01/27 10:09:16;;;;;;;12.80;6.58;;;;;;;1.33;58.99;100446.89;1803653;77;20995;-58
2022/01/27 10:11:50;;;;;;;12.30;6.30;;;;;;;1.30;59.07;100448.70;1793893;77;20992;-55
2022/01/27 10:14:35;;;;;;;12.55;8.43;;;;;;;1.26;59.00;100446.30;1800933;78;21039;-57
2022/01/27 10:17:04;;;;;;;13.15;7.42;;;;;;;1.22;59.48;100439.09;1798723;78;21090;-57
2022/01/27 10:19:35;;;;;;;13.05;8.68;;;;;;;1.26;59.42;100438.52;1796159;78;21089;-57
2022/01/27 10:22:01;;;;;;;19.67;8.70;;;;;;;1.29;59.48;100435.38;1802760;77;21425;-57
2022/01/27 10:24:30;;;;;;;11.57;7.90;;;;;;;1.29;59.69;100430.19;1758954;79;21106;-58
2022/01/27 10:27:55;;;;;;;16.73;7.80;;;;;;;1.36;59.64;100429.48;1804097;78;21094;-58
2022/01/27 10:32:54;;;;;;;12.33;7.60;;;;;;;1.39;59.45;100419.42;1807319;77;21512;-57
2022/01/27 10:35:23;;;;;;;15.13;8.48;;;;;;;1.38;59.52;100422.91;1790197;78;21004;-58
2022/01/27 10:38:06;;;;;;;17.77;9.25;;;;;;;1.37;59.71;100414.77;1748001;79;21041;-58
2022/01/27 10:40:41;;;;;;;12.45;7.15;;;;;;;1.37;60.01;100414.30;1801654;78;21090;-57
2022/01/27 10:43:21;;;;;;;11.03;6.85;;;;;;;1.36;59.79;100416.52;1784901;78;21978;-58
2022/01/27 10:48:48;;;;;;;13.98;8.35;;;;;;;1.21;60.63;100401.57;1808794;78;21066;-56
2022/01/27 10:51:23;;;;;;;16.97;9.00;;;;;;;1.17;60.98;100409.92;1771353;80;21364;-57
2022/01/27 10:54:04;;;;;;;12.88;7.55;;;;;;;1.13;61.14;100400.61;1806579;78;22422;-56
2022/01/27 10:56:38;;;;;;;14.58;8.28;;;;;;;1.11;61.45;100405.02;1766630;79;21045;-57
2022/01/27 10:59:10;;;;;;;14.43;9.08;;;;;;;1.05;61.63;100399.61;1789235;78;22359;-57
2022/01/27 11:01:48;;;;;;;17.25;8.58;;;;;;;1.05;61.83;100394.89;1771909;79;22406;-57
2022/01/27 11:04:17;;;;;;;12.93;8.33;;;;;;;1.04;61.82;100396.64;1760540;79;21100;-56
2022/01/27 11:06:59;;;;;;;11.40;7.20;;;;;;;1.02;61.73;100395.00;1787869;78;21049;-56
2022/01/27 11:09:27;;;;;;;15.00;8.20;;;;;;;0.98;61.85;100385.22;1785279;78;21084;-59
2022/01/27 11:11:56;;;;;;;14.25;8.85;;;;;;;0.95;61.98;100384.50;1811741;78;21128;-57
2022/01/27 11:14:25;;;;;;;14.53;7.03;;;;;;;0.96;62.32;100388.77;1802088;77;21089;-56
2022/01/27 11:16:58;;;;;;;12.98;8.10;;;;;;;0.97;62.32;100381.39;1808935;78;20990;-58
2022/01/27 11:25:07;;;;;;;12.40;7.40;;;;;;;1.05;62.14;100373.69;1808716;77;21158;-57
2022/01/27 11:27:13;;;;;;;13.13;8.15;;;;;;;1.07;62.24;100365.39;1812500;77;21023;-57
2022/01/27 11:29:44;;;;;;;13.83;8.45;;;;;;;1.11;62.29;100367.44;1802090;77;21049;-59
2022/01/27 11:32:37;;;;;;;16.77;9.05;;;;;;;1.15;62.30;100362.97;1789874;78;21050;-58
2022/01/27 11:35:19;;;;;;;14.50;8.88;;;;;;;1.20;62.46;100365.75;1762976;79;21027;-58
2022/01/27 11:37:54;;;;;;;17.48;8.55;;;;;;;1.27;62.36;100352.91;1792940;77;21054;-57
2022/01/27 11:40:23;;;;;;;18.75;8.30;;;;;;;1.28;62.09;100350.72;1791269;78;22516;-57
2022/01/27 11:42:58;;;;;;;20.72;9.75;;;;;;;1.33;62.03;100354.42;1785467;78;21077;-57
2022/01/27 11:45:46;;;;;;;16.35;9.58;;;;;;;1.31;62.15;100348.44;1810989;78;21010;-57
2022/01/27 11:48:22;;;;;;;14.58;8.78;;;;;;;1.33;62.24;100347.94;1812532;77;21037;-56
2022/01/27 11:50:54;;;;;;;19.23;9.45;;;;;;;1.31;62.05;100348.44;1743023;80;21183;-57
2022/01/27 11:53:48;;;;;;;13.85;8.48;;;;;;;1.25;62.16;100337.88;1808787;78;21120;-57
2022/01/27 11:56:33;;;;;;;12.37;7.97;;;;;;;1.23;62.28;100341.46;1786957;78;21054;-58
2022/01/27 11:59:04;;;;;;;15.35;9.30;;;;;;;1.21;62.33;100338.06;1812002;78;21908;-58
2022/01/27 12:01:35;;;;;;;17.42;9.20;;;;;;;1.20;62.51;100331.22;1771165;78;21042;-57
2022/01/27 12:04:07;;;;;;;15.50;9.65;;;;;;;1.17;62.56;100336.06;1786305;78;21102;-57
2022/01/27 12:06:50;;;;;;;17.27;9.88;;;;;;;1.15;62.66;100331.41;1777849;78;21097;-57
2022/01/27 12:09:27;;;;;;;17.25;10.18;;;;;;;1.20;62.79;100333.81;1805027;77;21068;-57
2022/01/27 12:12:20;;;;;;;15.18;9.58;;;;;;;1.19;62.90;100331.64;1769412;78;21030;-58
2022/01/27 12:14:47;;;;;;;;;;;;;;;1.23;62.91;100330.62;1818454;77;21073;-57
2022/01/27 12:17:20;;;;;;;15.95;9.45;;;;;;;1.25;63.04;100323.62;1766647;79;21027;-57
2022/01/27 12:20:03;;;;;;;19.77;10.60;;;;;;;1.25;63.03;100326.68;1774221;79;21322;-57
2022/01/27 12:22:51;;;;;;;19.75;11.70;;;;;;;1.27;63.09;100328.28;1784772;78;21057;-58
2022/01/27 12:25:16;;;;;;;18.02;10.98;;;;;;;1.35;63.17;100331.86;1780874;78;21026;-57
2022/01/27 12:27:58;;;;;;;17.52;10.53;;;;;;;1.39;63.14;100331.27;1807986;77;21074;-57
2022/01/27 12:30:24;;;;;;;16.57;11.73;;;;;;;1.43;63.12;100321.14;1787366;78;21156;-57
2022/01/27 12:32:54;;;;;;;18.32;11.25;;;;;;;1.47;63.22;100320.95;1779202;77;21065;-57